Time;durP1;ratioP1;P1;durP2;ratioP2;P2;SDS_P1;SDS_P2;PMS_P1;PMS_P2;Temp;Humidity;BMP_temperature;BMP_pressure;BME280_temperature;BME280_humidity;BME280_pressure;Samples;Min_cycle;Max_cycle;Signal;HPM_P1;HPM_P2
2023/05/20 00:00:50;;;;;;;2.97;1.90;;;19.40;99.90;;;;;;5082639;28;20190;-74
2023/05/20 00:03:21;;;;;;;3.27;1.70;;;19.30;99.90;;;;;;5073252;28;20263;-68
2023/05/20 00:05:49;;;;;;;10.07;1.73;;;19.40;99.90;;;;;;5073127;28;20200;-69
2023/05/20 00:08:18;;;;;;;2.43;1.77;;;19.10;99.90;;;;;;5073327;28;20637;-67
2023/05/20 00:10:45;;;;;;;4.07;1.90;;;19.20;99.90;;;;;;5073162;28;20172;-67
2023/05/20 00:13:13;;;;;;;4.43;1.60;;;19.80;99.90;;;;;;5073040;28;20176;-68
2023/05/20 00:15:41;;;;;;;3.13;1.67;;;19.70;99.90;;;;;;5073022;28;20210;-69
2023/05/20 00:18:09;;;;;;;4.90;1.80;;;19.20;99.90;;;;;;5073172;28;20167;-68
2023/05/20 00:20:36;;;;;;;3.90;1.67;;;19.60;99.90;;;;;;5072924;28;20175;-67
2023/05/20 00:23:04;;;;;;;2.00;1.77;;;19.50;99.90;;;;;;5072901;28;20203;-70
2023/05/20 00:25:31;;;;;;;3.73;1.13;;;19.40;99.90;;;;;;5072976;28;20217;-69
2023/05/20 00:27:59;;;;;;;1.17;1.00;;;19.50;99.90;;;;;;5073057;28;20187;-69
2023/05/20 00:30:26;;;;;;;1.13;1.00;;;19.50;99.90;;;;;;5072645;28;20168;-68
2023/05/20 00:32:54;;;;;;;1.70;0.97;;;19.50;99.90;;;;;;5072780;28;20214;-69
2023/05/20 00:35:21;;;;;;;1.23;0.93;;;19.40;99.90;;;;;;5071951;28;20176;-69
2023/05/20 00:37:48;;;;;;;3.73;1.10;;;19.30;99.90;;;;;;5072549;28;20290;-69
2023/05/20 00:40:16;;;;;;;1.10;1.00;;;19.00;99.90;;;;;;5072815;28;20631;-69
2023/05/20 00:42:43;;;;;;;1.90;0.73;;;19.00;99.90;;;;;;5072530;28;20271;-70
2023/05/20 00:45:11;;;;;;;2.40;0.80;;;19.70;99.90;;;;;;5073036;28;20539;-67
2023/05/20 00:47:39;;;;;;;1.03;0.70;;;20.00;97.00;;;;;;5072482;28;20261;-69
2023/05/20 00:50:07;;;;;;;1.00;0.80;;;20.00;94.80;;;;;;5072824;28;20172;-67
2023/05/20 00:52:36;;;;;;;1.37;0.80;;;20.00;95.30;;;;;;5072201;28;20187;-67
2023/05/20 00:55:03;;;;;;;2.30;0.97;;;19.90;94.30;;;;;;5072325;28;20666;-67
2023/05/20 00:57:31;;;;;;;3.37;0.70;;;20.00;92.30;;;;;;5071056;28;20224;-67
2023/05/20 00:59:58;;;;;;;2.57;0.80;;;19.70;94.50;;;;;;5072507;28;20180;-68
2023/05/20 01:02:26;;;;;;;3.80;0.90;;;20.10;94.80;;;;;;5072034;28;20180;-66
2023/05/20 01:04:55;;;;;;;1.33;0.70;;;20.80;93.50;;;;;;5072392;28;20235;-66
2023/05/20 01:07:24;;;;;;;1.33;0.70;;;20.60;91.60;;;;;;5072243;28;20251;-70
2023/05/20 01:09:53;;;;;;;1.10;0.67;;;20.90;88.10;;;;;;5072262;28;20229;-68
2023/05/20 01:12:28;;;;;;;3.63;0.90;;;20.60;81.70;;;;;;5072137;28;20207;-68
2023/05/20 01:15:05;;;;;;;4.77;0.80;;;20.60;84.20;;;;;;5072263;28;20198;-67
2023/05/20 01:17:36;;;;;;;1.90;0.80;;;20.80;82.50;;;;;;5072279;28;20172;-68
2023/05/20 01:20:08;;;;;;;0.93;0.80;;;21.00;80.60;;;;;;5072127;28;20591;-67
2023/05/20 01:22:38;;;;;;;0.80;0.70;;;20.80;82.50;;;;;;5071665;28;20210;-66
2023/05/20 01:25:06;;;;;;;1.87;0.70;;;20.90;76.30;;;;;;5072330;28;20186;-70
2023/05/20 01:27:34;;;;;;;3.27;0.80;;;20.30;77.80;;;;;;5071888;28;20211;-68
2023/05/20 01:30:02;;;;;;;3.87;0.73;;;20.00;79.30;;;;;;5072065;28;20173;-67
2023/05/20 01:32:52;;;;;;;1.93;0.90;;;19.80;80.70;;;;;;5072024;28;20175;-68
2023/05/20 01:35:21;;;;;;;1.50;0.73;;;19.90;82.70;;;;;;5071746;28;20197;-68
2023/05/20 01:37:52;;;;;;;1.37;0.80;;;20.50;81.40;;;;;;5071634;28;20219;-66
2023/05/20 01:40:20;;;;;;;0.60;0.60;;;20.50;81.30;;;;;;5071946;28;20191;-67
2023/05/20 01:42:51;;;;;;;0.87;0.70;;;20.20;77.30;;;;;;5071681;28;20172;-66
2023/05/20 01:45:19;;;;;;;2.93;0.70;;;20.00;78.10;;;;;;5072197;28;20183;-66
2023/05/20 01:47:47;;;;;;;1.67;0.80;;;20.70;80.90;;;;;;5075234;28;20303;-67
2023/05/20 01:50:14;;;;;;;1.27;0.70;;;20.30;76.40;;;;;;5074221;28;20176;-67
2023/05/20 01:52:42;;;;;;;1.73;0.67;;;20.40;76.80;;;;;;5075338;28;20232;-68
2023/05/20 01:55:09;;;;;;;1.00;0.80;;;20.90;79.10;;;;;;5075408;28;20640;-67
2023/05/20 01:57:37;;;;;;;1.37;0.70;;;20.90;73.30;;;;;;5075173;28;20183;-67
2023/05/20 02:00:05;;;;;;;2.07;0.50;;;20.80;73.70;;;;;;5075501;28;20274;-69
2023/05/20 02:02:32;;;;;;;2.30;0.77;;;20.70;74.70;;;;;;5073983;28;20581;-67
2023/05/20 02:05:00;;;;;;;1.33;0.63;;;20.80;72.40;;;;;;5075462;28;20187;-68
2023/05/20 02:07:27;;;;;;;0.73;0.63;;;21.20;71.70;;;;;;5075297;28;20302;-68
2023/05/20 02:09:54;;;;;;;3.43;0.80;;;21.10;67.40;;;;;;5075215;28;20195;-67
2023/05/20 02:12:22;;;;;;;1.63;0.90;;;21.10;69.40;;;;;;5075075;28;20171;-68
2023/05/20 02:14:49;;;;;;;1.47;0.90;;;21.00;65.10;;;;;;5075578;28;20584;-69
2023/05/20 02:17:17;;;;;;;3.00;0.80;;;21.20;66.60;;;;;;5075174;28;20183;-69
2023/05/20 02:19:45;;;;;;;2.93;0.70;;;21.30;63.50;;;;;;5075134;28;20230;-68
2023/05/20 02:22:14;;;;;;;0.50;0.50;;;21.40;63.50;;;;;;5073574;28;20183;-69
2023/05/20 02:24:42;;;;;;;5.00;0.97;;;21.30;62.40;;;;;;5074787;28;20183;-69
2023/05/20 02:27:10;;;;;;;3.63;0.60;;;21.20;65.00;;;;;;5074871;28;20302;-67
2023/05/20 02:29:37;;;;;;;1.73;0.90;;;21.40;63.60;;;;;;5074703;28;20618;-68
2023/05/20 02:32:05;;;;;;;1.97;0.87;;;20.90;65.80;;;;;;5074678;28;20233;-68
2023/05/20 02:34:32;;;;;;;1.27;0.70;;;21.40;66.70;;;;;;5074919;28;20767;-67
2023/05/20 02:37:00;;;;;;;3.27;0.80;;;21.50;63.50;;;;;;5074465;28;20242;-68
2023/05/20 02:39:27;;;;;;;0.70;0.60;;;21.40;63.50;;;;;;5074625;28;20229;-67
2023/05/20 02:41:55;;;;;;;1.10;0.47;;;21.20;62.70;;;;;;5074373;28;20270;-67
2023/05/20 02:44:22;;;;;;;0.50;0.50;;;21.40;66.30;;;;;;5074410;28;20597;-67
2023/05/20 02:46:49;;;;;;;0.93;0.60;;;21.40;61.80;;;;;;5073193;28;20245;-68
2023/05/20 02:49:17;;;;;;;1.67;0.50;;;21.50;61.70;;;;;;5104827;27;20601;-70
2023/05/20 02:51:44;;;;;;;1.70;0.70;;;21.50;61.20;;;;;;5073645;28;20210;-67
2023/05/20 02:54:12;;;;;;;1.00;0.60;;;21.50;62.70;;;;;;5054818;28;20501;-68
2023/05/20 02:56:39;;;;;;;1.67;0.67;;;21.60;61.30;;;;;;5079506;28;20266;-67
2023/05/20 02:59:07;;;;;;;1.37;0.70;;;21.50;60.20;;;;;;5072630;28;20206;-68
2023/05/20 03:01:34;;;;;;;2.07;0.70;;;21.60;61.10;;;;;;5066628;28;20257;-67
2023/05/20 03:04:05;;;;;;;1.93;0.70;;;21.60;60.50;;;;;;5072593;28;20188;-68
2023/05/20 03:06:32;;;;;;;1.17;0.70;;;21.50;59.60;;;;;;5072751;28;20323;-68
2023/05/20 03:09:00;;;;;;;0.80;0.63;;;21.60;59.40;;;;;;5072407;28;20274;-68
2023/05/20 03:11:27;;;;;;;5.43;0.70;;;21.90;60.20;;;;;;5072121;28;20180;-67
2023/05/20 03:13:55;;;;;;;1.90;0.53;;;22.00;60.00;;;;;;5072943;28;20242;-67
2023/05/20 03:16:24;;;;;;;1.60;0.70;;;22.00;57.00;;;;;;5072478;28;20341;-68
2023/05/20 03:18:53;;;;;;;0.73;0.40;;;21.90;56.80;;;;;;5072825;28;20219;-67
2023/05/20 03:21:22;;;;;;;1.00;0.40;;;21.80;55.60;;;;;;5072315;28;20273;-69
2023/05/20 03:23:50;;;;;;;0.90;0.60;;;21.80;59.20;;;;;;5071732;28;20203;-67
2023/05/20 03:26:17;;;;;;;1.30;0.70;;;22.30;58.10;;;;;;5072189;28;20211;-68
2023/05/20 03:28:44;;;;;;;1.47;0.60;;;22.10;57.20;;;;;;5071639;28;20232;-67
2023/05/20 03:31:12;;;;;;;0.50;0.50;;;21.90;55.20;;;;;;5071058;28;20249;-68
2023/05/20 03:33:39;;;;;;;0.93;0.60;;;21.90;55.80;;;;;;5072009;28;20187;-68
2023/05/20 03:36:06;;;;;;;6.27;0.70;;;22.10;54.20;;;;;;5071779;28;20301;-68
2023/05/20 03:38:34;;;;;;;1.10;0.77;;;21.80;56.70;;;;;;5071486;28;20176;-68
2023/05/20 03:41:01;;;;;;;2.73;0.67;;;21.80;56.90;;;;;;5071470;28;20187;-69
2023/05/20 03:43:29;;;;;;;1.50;0.70;;;22.00;55.90;;;;;;5072091;28;20180;-68
2023/05/20 03:45:56;;;;;;;0.77;0.63;;;22.00;55.60;;;;;;5069068;28;20219;-69
2023/05/20 03:48:24;;;;;;;4.33;0.60;;;21.90;55.20;;;;;;5071224;28;20195;-68
2023/05/20 03:50:51;;;;;;;0.60;0.50;;;21.80;56.50;;;;;;5071732;28;20175;-71
2023/05/20 03:53:19;;;;;;;0.80;0.60;;;21.40;54.90;;;;;;5070422;28;20188;-72
2023/05/20 03:55:47;;;;;;;0.53;0.53;;;20.80;58.10;;;;;;5071818;28;20187;-68
2023/05/20 03:58:14;;;;;;;0.93;0.70;;;20.90;60.50;;;;;;5071438;28;20453;-68
2023/05/20 04:00:42;;;;;;;0.70;0.60;;;21.40;58.70;;;;;;5070865;28;20650;-70
2023/05/20 04:03:10;;;;;;;1.23;0.63;;;21.70;57.50;;;;;;5072032;28;20172;-70
2023/05/20 04:05:37;;;;;;;1.20;0.70;;;21.90;56.50;;;;;;5071753;28;20178;-67
2023/05/20 04:08:05;;;;;;;1.00;0.70;;;21.90;53.50;;;;;;5071422;28;20184;-68
2023/05/20 04:10:33;;;;;;;0.47;0.47;;;21.90;53.20;;;;;;5071664;28;20641;-71
2023/05/20 04:13:00;;;;;;;3.10;0.70;;;21.90;54.60;;;;;;5071395;28;20180;-71
2023/05/20 04:15:28;;;;;;;1.53;0.60;;;21.90;53.30;;;;;;5071472;28;20265;-71
2023/05/20 04:17:56;;;;;;;0.40;0.40;;;22.00;55.50;;;;;;5071161;28;20225;-67
2023/05/20 04:20:23;;;;;;;1.10;0.63;;;21.60;55.20;;;;;;5071363;28;20276;-67
2023/05/20 04:22:51;;;;;;;0.67;0.50;;;21.80;57.20;;;;;;5070933;28;20168;-67
2023/05/20 04:25:18;;;;;;;2.30;0.53;;;22.10;56.10;;;;;;5071277;28;20214;-68
2023/05/20 04:27:46;;;;;;;0.50;0.50;;;21.50;54.20;;;;;;5070842;28;20342;-68
2023/05/20 04:33:38;;;;;;;2.07;0.60;;;21.50;53.70;;;;;;5069410;28;20671;-68
2023/05/20 04:36:10;;;;;;;0.50;0.50;;;21.50;55.00;;;;;;5070589;28;20207;-71
2023/05/20 04:38:38;;;;;;;0.60;0.50;;;21.30;51.60;;;;;;5071339;28;20271;-71
2023/05/20 04:41:06;;;;;;;1.73;0.93;;;20.90;55.20;;;;;;5071591;28;20190;-71
2023/05/20 04:43:34;;;;;;;0.63;0.50;;;20.80;54.90;;;;;;5070774;28;20168;-72
2023/05/20 04:46:04;;;;;;;0.63;0.50;;;20.80;53.30;;;;;;5071398;28;20725;-69
2023/05/20 04:48:32;;;;;;;0.80;0.60;;;20.20;53.20;;;;;;5069625;28;20559;-72
2023/05/20 04:51:00;;;;;;;0.70;0.63;;;20.10;55.40;;;;;;5070417;28;20180;-74
2023/05/20 04:53:29;;;;;;;0.73;0.60;;;20.30;55.90;;;;;;5070869;28;20193;-71
2023/05/20 04:55:57;;;;;;;0.57;0.50;;;20.60;56.10;;;;;;5071445;28;20179;-71
2023/05/20 04:58:24;;;;;;;4.20;0.90;;;20.70;55.00;;;;;;5069192;28;20415;-73
2023/05/20 05:00:52;;;;;;;0.50;0.50;;;20.80;56.30;;;;;;5071253;28;20235;-72
2023/05/20 05:03:19;;;;;;;0.40;0.40;;;20.50;55.90;;;;;;5071214;28;20171;-71
2023/05/20 05:05:47;;;;;;;0.40;0.40;;;20.50;56.30;;;;;;5070750;28;20187;-72
2023/05/20 05:08:15;;;;;;;0.87;0.50;;;20.70;56.00;;;;;;5070404;28;20279;-71
2023/05/20 05:10:45;;;;;;;0.40;0.40;;;20.60;56.00;;;;;;5071209;28;20547;-72
2023/05/20 05:13:13;;;;;;;2.10;0.50;;;20.50;55.30;;;;;;5070274;28;20248;-71
2023/05/20 05:15:41;;;;;;;1.53;0.50;;;20.40;56.30;;;;;;5070769;28;20172;-72
2023/05/20 05:18:08;;;;;;;0.70;0.40;;;20.30;57.40;;;;;;5070180;28;20193;-71
2023/05/20 05:20:36;;;;;;;0.60;0.50;;;19.90;57.30;;;;;;5070281;28;20191;-71
2023/05/20 05:23:03;;;;;;;0.60;0.47;;;19.60;58.80;;;;;;5073803;28;20181;-72
2023/05/20 05:25:31;;;;;;;0.43;0.43;;;19.40;61.30;;;;;;5074823;28;20176;-72
2023/05/20 05:27:58;;;;;;;1.47;0.60;;;19.00;62.30;;;;;;5073789;28;20273;-71
2023/05/20 05:30:26;;;;;;;0.50;0.40;;;18.80;65.80;;;;;;5073155;28;20659;-70
2023/05/20 05:32:53;;;;;;;0.70;0.70;;;18.60;65.50;;;;;;5073905;28;20246;-70
2023/05/20 05:35:20;;;;;;;1.17;0.70;;;18.50;68.10;;;;;;5073480;28;20175;-71
2023/05/20 05:37:48;;;;;;;1.70;0.90;;;18.30;70.80;;;;;;5074358;28;20221;-72
2023/05/20 05:40:15;;;;;;;1.17;0.57;;;18.20;72.70;;;;;;5073976;28;20274;-72
2023/05/20 05:42:43;;;;;;;0.67;0.50;;;18.10;71.80;;;;;;5073916;28;20180;-72
2023/05/20 05:45:10;;;;;;;0.63;0.50;;;18.00;72.10;;;;;;5073868;28;20191;-72
2023/05/20 05:47:38;;;;;;;0.63;0.60;;;17.80;72.90;;;;;;5069424;28;20294;-72
2023/05/20 05:50:05;;;;;;;0.60;0.47;;;17.80;76.10;;;;;;5074176;28;20321;-71
2023/05/20 05:52:33;;;;;;;0.60;0.60;;;17.70;73.70;;;;;;5073109;28;20215;-72
2023/05/20 05:55:00;;;;;;;2.13;0.60;;;17.70;75.50;;;;;;5074353;28;20172;-73
2023/05/20 05:57:27;;;;;;;0.53;0.53;;;17.70;74.50;;;;;;5074113;28;20180;-73
2023/05/20 05:59:55;;;;;;;0.60;0.60;;;17.60;76.20;;;;;;5074218;28;20728;-71
2023/05/20 06:02:22;;;;;;;0.93;0.67;;;17.70;78.20;;;;;;5074119;28;20184;-73
2023/05/20 06:04:50;;;;;;;0.77;0.70;;;17.60;78.30;;;;;;5073196;28;20211;-71
2023/05/20 06:07:17;;;;;;;0.50;0.50;;;17.50;79.10;;;;;;5074142;28;20226;-71
2023/05/20 06:09:45;;;;;;;0.50;0.50;;;17.50;77.30;;;;;;5073740;28;20270;-71
2023/05/20 06:12:12;;;;;;;0.60;0.60;;;17.50;78.30;;;;;;5073412;28;20184;-70
2023/05/20 06:14:39;;;;;;;0.57;0.57;;;17.40;79.10;;;;;;5073607;28;20172;-71
2023/05/20 06:17:27;;;;;;;0.93;0.70;;;17.40;80.90;;;;;;5073609;28;20263;-71
2023/05/20 06:19:54;;;;;;;1.43;0.80;;;17.30;82.30;;;;;;5072038;28;20276;-72
2023/05/20 06:22:22;;;;;;;3.07;0.70;;;17.20;85.90;;;;;;5073695;28;20263;-71
2023/05/20 06:24:49;;;;;;;0.70;0.63;;;17.20;85.30;;;;;;5072275;28;20649;-72
2023/05/20 06:27:16;;;;;;;3.70;0.70;;;17.10;85.90;;;;;;5072741;28;20215;-71
2023/05/20 06:29:44;;;;;;;2.90;0.87;;;17.10;87.10;;;;;;5073280;28;20174;-71
2023/05/20 06:32:14;;;;;;;1.80;0.73;;;17.00;87.80;;;;;;5073164;28;20605;-73
2023/05/20 06:34:44;;;;;;;1.67;0.93;;;16.90;85.70;;;;;;5072425;28;20527;-72
2023/05/20 06:37:12;;;;;;;0.67;0.60;;;16.80;85.20;;;;;;5075447;28;20236;-72
2023/05/20 06:39:40;;;;;;;0.77;0.70;;;16.70;84.40;;;;;;5072929;28;20233;-72
2023/05/20 06:42:07;;;;;;;2.53;1.07;;;16.70;86.30;;;;;;5072848;28;20180;-73
2023/05/20 06:44:40;;;;;;;1.17;1.07;;;16.60;87.70;;;;;;5073241;28;20180;-72
2023/05/20 06:47:07;;;;;;;7.43;1.30;;;16.50;91.20;;;;;;5072915;28;20222;-73
2023/05/20 06:49:35;;;;;;;1.17;1.00;;;16.40;92.60;;;;;;5072607;28;20266;-72
2023/05/20 06:52:02;;;;;;;1.87;1.03;;;16.20;94.30;;;;;;5071645;28;20187;-73
2023/05/20 06:54:32;;;;;;;2.10;1.17;;;16.10;94.70;;;;;;5072680;28;20187;-73
2023/05/20 06:57:00;;;;;;;2.10;1.00;;;16.00;96.50;;;;;;5072612;28;20241;-70
2023/05/20 06:59:27;;;;;;;1.73;1.30;;;15.90;99.90;;;;;;5072593;28;20167;-72
2023/05/20 07:01:55;;;;;;;1.93;1.10;;;15.70;99.90;;;;;;5071558;28;20187;-72
2023/05/20 07:04:28;;;;;;;4.37;1.40;;;15.50;99.90;;;;;;5072391;28;20175;-72
2023/05/20 07:06:55;;;;;;;1.10;1.00;;;15.30;99.90;;;;;;5072691;28;20215;-72
2023/05/20 07:09:23;;;;;;;1.70;1.30;;;15.20;99.90;;;;;;5071697;28;20186;-71
2023/05/20 07:11:50;;;;;;;2.43;1.40;;;15.00;99.90;;;;;;5071861;28;20246;-71
2023/05/20 07:14:18;;;;;;;2.07;1.37;;;14.90;99.90;;;;;;5072566;28;20172;-72
2023/05/20 07:16:45;;;;;;;2.30;1.63;;;14.80;99.90;;;;;;5072170;28;20180;-71
2023/05/20 07:19:13;;;;;;;2.53;1.27;;;14.90;99.90;;;;;;5072188;28;20178;-71
2023/05/20 07:21:40;;;;;;;1.97;1.27;;;14.80;99.90;;;;;;5072529;28;20211;-72
2023/05/20 07:24:07;;;;;;;4.43;1.70;;;14.70;99.90;;;;;;5072657;28;20262;-73
2023/05/20 07:26:35;;;;;;;5.17;2.10;;;14.60;99.90;;;;;;5071327;28;20269;-72
2023/05/20 07:29:06;;;;;;;5.73;2.13;;;14.50;99.90;;;;;;5072498;28;20684;-72
2023/05/20 07:31:33;;;;;;;3.63;2.00;;;14.40;99.90;;;;;;5072374;28;20266;-71
2023/05/20 07:34:01;;;;;;;3.30;2.00;;;14.30;99.90;;;;;;5071660;28;20542;-71
2023/05/20 07:36:29;;;;;;;4.67;1.87;;;14.20;99.90;;;;;;5072085;28;20234;-71
2023/05/20 07:38:56;;;;;;;2.03;1.53;;;14.10;99.90;;;;;;5072657;28;20265;-72
2023/05/20 07:41:25;;;;;;;1.80;1.33;;;14.00;99.90;;;;;;5071779;28;20182;-71
2023/05/20 07:43:52;;;;;;;2.43;1.40;;;13.90;99.90;;;;;;5071572;28;20693;-72
2023/05/20 07:46:20;;;;;;;5.20;1.70;;;13.80;99.90;;;;;;5072163;28;20588;-73
2023/05/20 07:48:48;;;;;;;7.03;3.07;;;13.70;99.90;;;;;;5071622;28;20190;-72
2023/05/20 07:51:15;;;;;;;4.10;2.70;;;13.60;99.90;;;;;;5071600;28;20313;-72
2023/05/20 07:53:42;;;;;;;6.17;2.80;;;13.60;99.90;;;;;;5071605;28;20207;-71
2023/05/20 07:56:10;;;;;;;5.33;2.40;;;13.60;99.90;;;;;;5071126;28;20618;-71
2023/05/20 07:58:40;;;;;;;3.03;2.10;;;13.60;99.90;;;;;;5071759;28;20189;-71
2023/05/20 08:01:08;;;;;;;2.40;2.00;;;13.60;99.90;;;;;;5071311;28;20244;-72
2023/05/20 08:03:36;;;;;;;7.13;2.17;;;13.70;99.90;;;;;;5071358;28;20190;-72
2023/05/20 08:06:03;;;;;;;3.20;2.17;;;13.70;99.90;;;;;;5070893;28;20204;-71
2023/05/20 08:08:31;;;;;;;4.70;2.33;;;13.70;99.90;;;;;;5071390;28;20180;-70
2023/05/20 08:11:00;;;;;;;3.67;2.40;;;13.70;99.90;;;;;;5071159;28;20286;-71
2023/05/20 08:13:27;;;;;;;5.27;2.47;;;13.70;99.90;;;;;;5071245;28;20192;-71
2023/05/20 08:15:55;;;;;;;3.33;2.60;;;13.70;99.90;;;;;;5071442;28;20195;-71
2023/05/20 08:18:23;;;;;;;2.40;2.20;;;13.60;99.90;;;;;;5071150;28;20297;-70
2023/05/20 08:20:50;;;;;;;5.90;2.70;;;13.50;99.90;;;;;;5073029;28;20537;-72
2023/05/20 08:23:18;;;;;;;4.60;2.77;;;13.50;99.90;;;;;;5070119;28;20190;-71
2023/05/20 08:25:48;;;;;;;4.33;2.20;;;13.40;99.90;;;;;;5069323;28;20639;-71
2023/05/20 08:28:15;;;;;;;5.00;2.53;;;13.30;99.90;;;;;;5071308;28;20222;-71
2023/05/20 08:30:43;;;;;;;4.03;2.40;;;13.20;99.90;;;;;;5071203;28;20254;-71
2023/05/20 08:33:11;;;;;;;2.77;1.93;;;13.10;99.90;;;;;;5069393;28;20191;-70
2023/05/20 08:35:39;;;;;;;3.30;2.00;;;13.10;99.90;;;;;;5071458;28;20174;-71
2023/05/20 08:38:07;;;;;;;3.60;2.03;;;13.00;99.90;;;;;;5070885;28;20297;-70
2023/05/20 08:40:37;;;;;;;3.93;2.17;;;12.90;99.90;;;;;;5070873;28;20176;-72
2023/05/20 08:43:05;;;;;;;2.57;1.80;;;12.80;99.90;;;;;;5069895;28;20187;-70
2023/05/20 08:45:34;;;;;;;3.33;2.33;;;12.80;99.90;;;;;;5071317;28;20268;-72
2023/05/20 08:48:06;;;;;;;2.70;1.90;;;12.60;99.90;;;;;;5070538;28;20650;-70
2023/05/20 08:50:34;;;;;;;2.27;1.60;;;12.50;99.90;;;;;;5070490;28;20536;-70
2023/05/20 08:53:01;;;;;;;3.37;1.87;;;12.40;99.90;;;;;;5070926;28;20189;-72
2023/05/20 08:55:52;;;;;;;3.57;2.20;;;12.30;99.90;;;;;;5068603;28;20664;-71
2023/05/20 08:58:20;;;;;;;6.03;2.73;;;12.20;99.90;;;;;;5071060;28;20186;-71
2023/05/20 09:00:47;;;;;;;7.97;4.53;;;12.10;99.90;;;;;;5070559;28;20170;-71
2023/05/20 09:03:14;;;;;;;8.13;3.30;;;12.10;99.90;;;;;;5069212;28;20692;-72
2023/05/20 09:05:42;;;;;;;6.80;3.47;;;12.00;99.90;;;;;;5070900;28;20210;-71
2023/05/20 09:08:11;;;;;;;6.27;3.50;;;11.90;99.90;;;;;;5070554;28;20184;-71
2023/05/20 09:10:40;;;;;;;5.87;3.47;;;11.90;99.90;;;;;;5070432;28;20636;-70
2023/05/20 09:13:10;;;;;;;6.20;3.47;;;11.80;99.90;;;;;;5070025;28;20186;-70
2023/05/20 09:15:38;;;;;;;6.47;3.87;;;11.80;99.90;;;;;;5070509;28;20195;-70
2023/05/20 09:18:07;;;;;;;7.00;3.77;;;11.80;99.90;;;;;;5071992;28;20196;-70
2023/05/20 09:20:37;;;;;;;5.27;3.40;;;11.80;99.90;;;;;;5071578;28;20173;-71
2023/05/20 09:23:06;;;;;;;7.83;4.13;;;11.80;99.90;;;;;;5071940;28;20171;-70
2023/05/20 09:25:34;;;;;;;5.57;3.90;;;11.70;99.90;;;;;;5071793;28;20185;-70
2023/05/20 09:28:10;;;;;;;11.03;5.00;;;11.60;99.90;;;;;;5071611;28;20214;-71
2023/05/20 09:30:38;;;;;;;8.00;4.90;;;11.60;99.90;;;;;;5104305;28;20189;-70
2023/05/20 09:33:08;;;;;;;8.47;4.33;;;11.50;99.90;;;;;;5071757;28;20178;-70
2023/05/20 09:35:38;;;;;;;9.70;5.13;;;11.50;99.90;;;;;;5071540;28;20182;-71
2023/05/20 09:38:08;;;;;;;10.73;6.07;;;11.40;99.90;;;;;;5071668;28;20256;-70
2023/05/20 09:40:39;;;;;;;7.00;5.00;;;11.30;99.90;;;;;;5071438;28;20209;-71
2023/05/20 09:43:07;;;;;;;11.83;5.07;;;11.20;99.90;;;;;;5071677;28;20294;-71
2023/05/20 09:45:35;;;;;;;7.10;4.67;;;11.20;99.90;;;;;;5071653;28;20177;-70
2023/05/20 09:48:02;;;;;;;8.37;5.60;;;11.10;99.90;;;;;;5071845;28;20223;-71
2023/05/20 09:50:31;;;;;;;6.57;4.77;;;11.10;99.90;;;;;;5071541;28;20244;-71
2023/05/20 09:53:03;;;;;;;8.43;4.60;;;11.10;99.90;;;;;;5071553;28;20177;-71
2023/05/20 09:55:30;;;;;;;8.93;5.27;;;11.10;99.90;;;;;;5071643;28;20178;-70
2023/05/20 09:58:02;;;;;;;8.80;4.73;;;11.10;99.90;;;;;;5071546;28;20559;-68
2023/05/20 10:00:30;;;;;;;8.47;4.47;;;11.10;99.90;;;;;;5071540;28;20700;-72
2023/05/20 10:02:58;;;;;;;6.87;4.90;;;11.00;99.90;;;;;;5070203;28;20273;-71
2023/05/20 10:05:32;;;;;;;8.37;4.40;;;10.90;99.90;;;;;;5071252;28;20267;-71
2023/05/20 10:08:42;;;;;;;7.83;4.83;;;10.90;99.90;;;;;;5073555;28;20216;-72
2023/05/20 10:11:20;;;;;;;8.30;4.53;;;10.90;99.90;;;;;;5075187;28;20174;-71
2023/05/20 10:14:00;;;;;;;6.73;4.10;;;10.80;99.90;;;;;;5075130;28;20186;-71
2023/05/20 10:16:38;;;;;;;6.47;3.93;;;10.80;99.90;;;;;;5075018;28;20193;-71
2023/05/20 10:19:28;;;;;;;4.90;3.60;;;10.80;99.90;;;;;;5074542;28;20187;-69
2023/05/20 10:22:02;;;;;;;4.33;3.03;;;10.80;99.90;;;;;;5075114;28;20175;-70
2023/05/20 10:24:33;;;;;;;6.00;3.87;;;10.70;99.90;;;;;;5074998;28;20638;-71
2023/05/20 10:27:07;;;;;;;3.90;2.73;;;10.70;99.90;;;;;;5074738;28;20199;-71
2023/05/20 10:29:56;;;;;;;10.17;7.63;;;10.70;99.90;;;;;;5074929;28;20178;-70
2023/05/20 10:32:31;;;;;;;9.50;5.63;;;10.70;99.90;;;;;;5074451;28;20201;-70
2023/05/20 10:35:08;;;;;;;9.97;5.60;;;10.70;99.90;;;;;;5075120;28;20198;-71
2023/05/20 10:37:50;;;;;;;7.27;5.53;;;10.80;99.90;;;;;;5074537;28;20571;-71
2023/05/20 10:40:20;;;;;;;5.47;4.23;;;10.80;99.90;;;;;;5074643;28;20562;-72
2023/05/20 10:42:48;;;;;;;9.03;4.67;;;10.80;99.90;;;;;;5074618;28;20269;-72
2023/05/20 10:45:27;;;;;;;9.07;4.13;;;10.80;99.90;;;;;;5074319;28;20554;-71
2023/05/20 10:48:00;;;;;;;6.37;4.40;;;10.80;99.90;;;;;;5074599;28;20570;-71
2023/05/20 10:50:35;;;;;;;6.73;4.20;;;10.70;99.90;;;;;;5074362;28;20175;-70
2023/05/20 10:53:11;;;;;;;4.97;4.20;;;10.60;99.90;;;;;;5074418;28;20266;-71
2023/05/20 10:55:40;;;;;;;5.93;4.43;;;10.60;99.90;;;;;;5073168;28;20182;-70
2023/05/20 10:58:09;;;;;;;6.17;3.80;;;10.50;99.90;;;;;;5073710;28;20190;-71
2023/05/20 11:00:38;;;;;;;8.90;4.40;;;10.60;99.90;;;;;;5073032;28;20178;-71
2023/05/20 11:03:06;;;;;;;6.93;3.53;;;10.60;99.90;;;;;;5074236;28;20726;-71
2023/05/20 11:05:34;;;;;;;7.43;3.70;;;10.50;99.90;;;;;;5073611;28;20230;-70
2023/05/20 11:08:03;;;;;;;4.53;3.10;;;10.60;99.90;;;;;;5070715;28;20220;-70
2023/05/20 11:10:32;;;;;;;5.03;3.27;;;10.50;99.90;;;;;;5074131;28;20178;-70
2023/05/20 11:13:02;;;;;;;6.20;3.70;;;10.40;99.90;;;;;;5071060;28;20201;-71
2023/05/20 11:15:32;;;;;;;6.07;3.37;;;10.40;99.90;;;;;;5072671;28;20593;-70
2023/05/20 11:18:02;;;;;;;5.93;3.90;;;10.40;99.90;;;;;;5072856;28;20720;-70
2023/05/20 11:20:33;;;;;;;7.13;3.87;;;10.30;99.90;;;;;;5073051;28;20576;-70
2023/05/20 11:23:04;;;;;;;6.60;4.37;;;10.50;99.90;;;;;;5072677;28;20278;-70
2023/05/20 11:25:33;;;;;;;8.60;5.43;;;10.40;99.90;;;;;;5073130;28;20169;-71
2023/05/20 11:28:01;;;;;;;10.27;7.30;;;10.40;99.90;;;;;;5072962;28;20216;-71
2023/05/20 11:30:29;;;;;;;11.33;7.70;;;10.40;99.90;;;;;;5072267;28;20206;-69
2023/05/20 11:33:01;;;;;;;12.77;8.50;;;10.40;99.90;;;;;;5072784;28;20259;-70
2023/05/20 11:35:32;;;;;;;16.47;10.47;;;10.30;99.90;;;;;;5073121;28;20216;-71
2023/05/20 11:38:08;;;;;;;16.17;10.57;;;10.30;99.90;;;;;;5073273;28;20223;-70
2023/05/20 11:40:36;;;;;;;12.77;8.57;;;10.30;99.90;;;;;;5072942;28;20187;-70
2023/05/20 11:43:04;;;;;;;14.30;9.47;;;10.20;99.90;;;;;;5073221;28;20538;-71
2023/05/20 11:45:59;;;;;;;15.70;8.13;;;10.10;99.90;;;;;;5071437;28;20671;-71
2023/05/20 11:48:27;;;;;;;9.30;7.10;;;10.10;99.90;;;;;;5055463;28;20200;-71
2023/05/20 11:50:56;;;;;;;10.33;6.83;;;10.10;99.90;;;;;;5073123;28;20652;-70
2023/05/20 11:53:25;;;;;;;9.60;6.83;;;10.00;99.90;;;;;;5072860;28;20252;-71
2023/05/20 11:55:57;;;;;;;10.90;6.80;;;10.00;99.90;;;;;;5072688;28;20186;-71
2023/05/20 11:58:30;;;;;;;11.13;7.23;;;10.00;99.90;;;;;;5073031;28;20634;-71
2023/05/20 12:00:58;;;;;;;11.20;7.43;;;10.00;99.90;;;;;;5073484;28;20177;-70
2023/05/20 12:03:26;;;;;;;11.40;6.80;;;9.80;99.90;;;;;;5073742;28;20200;-70
2023/05/20 12:05:54;;;;;;;10.53;7.17;;;9.80;99.90;;;;;;5072922;28;20181;-67
2023/05/20 12:08:21;;;;;;;8.50;5.97;;;9.80;99.90;;;;;;5073511;28;20174;-68
2023/05/20 12:10:49;;;;;;;9.20;5.97;;;9.70;99.90;;;;;;5072923;28;20183;-67
2023/05/20 12:13:18;;;;;;;11.17;6.40;;;9.60;99.90;;;;;;5073107;28;20255;-68
2023/05/20 12:15:49;;;;;;;10.37;5.97;;;9.60;99.90;;;;;;5070735;28;20195;-70
2023/05/20 12:18:16;;;;;;;11.37;6.23;;;9.60;99.90;;;;;;5072776;28;20186;-71
2023/05/20 12:20:44;;;;;;;10.70;6.40;;;9.70;99.90;;;;;;5071833;28;20176;-71
2023/05/20 12:23:12;;;;;;;8.60;5.77;;;9.70;99.90;;;;;;5072395;28;20657;-69
2023/05/20 12:25:40;;;;;;;11.40;6.37;;;9.50;99.90;;;;;;5072657;28;20190;-68
2023/05/20 12:28:08;;;;;;;10.30;6.43;;;9.50;99.90;;;;;;5071967;28;20242;-69
2023/05/20 12:30:35;;;;;;;10.60;6.47;;;9.50;99.90;;;;;;5072256;28;20180;-70
2023/05/20 12:33:03;;;;;;;9.63;6.30;;;9.50;99.90;;;;;;5072277;28;20185;-69
2023/05/20 12:35:42;;;;;;;8.63;6.03;;;9.50;99.90;;;;;;5072503;28;20227;-70
2023/05/20 12:38:10;;;;;;;12.23;6.40;;;9.50;99.90;;;;;;5070716;28;20237;-68
2023/05/20 12:40:42;;;;;;;9.30;6.13;;;9.40;99.90;;;;;;5071635;28;20232;-67
2023/05/20 12:43:09;;;;;;;7.87;5.93;;;9.30;99.90;;;;;;5071275;28;20211;-68
2023/05/20 12:45:37;;;;;;;10.50;6.20;;;9.20;99.90;;;;;;5072321;28;20589;-69
2023/05/20 12:48:08;;;;;;;8.70;6.00;;;9.10;99.90;;;;;;5072419;28;20403;-68
2023/05/20 12:50:36;;;;;;;8.00;5.50;;;9.20;99.90;;;;;;5072054;28;20189;-67
2023/05/20 12:53:06;;;;;;;11.63;6.43;;;9.10;99.90;;;;;;5072265;28;20185;-68
2023/05/20 12:55:34;;;;;;;8.97;5.77;;;9.00;99.90;;;;;;5071751;28;20645;-66
2023/05/20 12:58:02;;;;;;;11.40;6.60;;;9.00;99.90;;;;;;5072427;28;20176;-66